Time;durP1;ratioP1;P1;durP2;ratioP2;P2;SDS_P1;SDS_P2;PMS_P1;PMS_P2;Temp;Humidity;BMP_temperature;BMP_pressure;BME280_temperature;BME280_humidity;BME280_pressure;Samples;Min_cycle;Max_cycle;Signal;HPM_P1;HPM_P2
2022/05/12 00:00:55;;;;;;;;;;;;;;;22.55;53.92;100212.44;5117897;28;4907;-72
2022/05/12 00:03:21;;;;;;;;;;;;;;;22.55;54.05;100209.56;5117168;28;4144;-72
2022/05/12 00:05:48;;;;;;;;;;;;;;;22.55;53.83;100212.44;5117261;28;4225;-72
2022/05/12 00:08:14;;;;;;;;;;;;;;;22.54;54.03;100208.09;5114824;28;4169;-71
2022/05/12 00:10:41;;;;;;;;;;;;;;;22.55;54.02;100206.69;5116146;28;4215;-71
2022/05/12 00:13:07;;;;;;;;;;;;;;;22.54;53.95;100216.75;5118956;28;4048;-71
2022/05/12 00:15:34;;;;;;;;;;;;;;;22.55;53.99;100206.69;5117215;28;5265;-72
2022/05/12 00:18:04;;;;;;;;;;;;;;;22.53;54.05;100186.44;5117279;28;4202;-72
2022/05/12 00:20:31;;;;;;;;;;;;;;;22.53;54.24;100189.31;5116326;28;4249;-72
2022/05/12 00:23:06;;;;;;;;;;;;;;;22.53;54.08;100191.47;5117772;28;4210;-72
2022/05/12 00:25:32;;;;;;;;;;;;;;;22.53;54.37;100186.44;5115819;28;5115;-72
2022/05/12 00:27:59;;;;;;;;;;;;;;;22.53;53.98;100180.66;5117680;28;4557;-72
2022/05/12 00:30:25;;;;;;;;;;;;;;;22.52;54.22;100181.34;5118034;27;5416;-72
2022/05/12 00:32:52;;;;;;;;;;;;;;;22.52;54.12;100190.00;5121044;27;4204;-72
2022/05/12 00:35:18;;;;;;;;;;;;;;;22.51;54.02;100186.38;5120010;27;5222;-71
2022/05/12 00:37:44;;;;;;;;;;;;;;;22.51;54.05;100185.63;5121813;27;5262;-72
2022/05/12 00:40:11;;;;;;;;;;;;;;;22.51;54.32;100186.38;5119028;27;5257;-71
2022/05/12 00:42:50;;;;;;;;;;;;;;;22.51;54.35;100183.47;5118595;27;4272;-72
2022/05/12 00:45:17;;;;;;;;;;;;;;;22.51;54.29;100183.47;5121029;27;4023;-72
2022/05/12 00:47:43;;;;;;;;;;;;;;;22.51;53.96;100174.09;5116341;27;4209;-72
2022/05/12 00:50:10;;;;;;;;;;;;;;;22.51;54.30;100186.38;5118505;27;4160;-71
2022/05/12 00:52:36;;;;;;;;;;;;;;;22.50;54.06;100182.03;5101719;27;4040;-72
2022/05/12 00:55:06;;;;;;;;;;;;;;;22.51;54.15;100191.41;5120727;27;6552;-72
2022/05/12 00:57:35;;;;;;;;;;;;;;;22.50;54.33;100176.25;5106555;27;4399;-71
2022/05/12 01:00:03;;;;;;;;;;;;;;;22.49;54.04;100183.44;5106013;27;4220;-71
2022/05/12 01:02:29;;;;;;;;;;;;;;;22.50;54.36;100193.56;5118544;27;4158;-72
2022/05/12 01:04:56;;;;;;;;;;;;;;;22.50;54.49;100184.91;5102586;27;5342;-72
2022/05/12 01:07:22;;;;;;;;;;;;;;;22.50;54.30;100213.75;5119100;27;4261;-72
2022/05/12 01:09:48;;;;;;;;;;;;;;;22.50;54.06;100208.00;5119399;27;4583;-72
2022/05/12 01:12:15;;;;;;;;;;;;;;;22.50;54.39;100225.31;5119333;27;5335;-72
2022/05/12 01:14:41;;;;;;;;;;;;;;;22.49;54.40;100249.78;5119509;27;4233;-72
2022/05/12 01:17:32;;;;;;;;;;;;;;;22.49;54.37;100238.25;5119912;27;4239;-72
2022/05/12 01:19:59;;;;;;;;;;;;;;;22.49;54.21;100269.97;5101516;27;4153;-71
2022/05/12 01:22:35;;;;;;;;;;;;;;;22.48;54.25;100294.50;5108866;27;5510;-72
2022/05/12 01:25:01;;;;;;;;;;;;;;;22.48;54.34;100285.84;5119557;27;4158;-72
2022/05/12 01:27:30;;;;;;;;;;;;;;;22.48;54.48;100270.69;5118757;27;5240;-72
2022/05/12 01:29:56;;;;;;;;;;;;;;;22.48;54.65;100277.19;5115253;27;4284;-72
2022/05/12 01:32:23;;;;;;;;;;;;;;;22.47;54.28;100275.72;5115996;27;5292;-72
2022/05/12 01:34:50;;;;;;;;;;;;;;;22.47;54.52;100284.38;5117828;27;4047;-72
2022/05/12 01:37:16;;;;;;;;;;;;;;;22.48;54.28;100282.94;5120396;27;4803;-72
2022/05/12 01:39:42;;;;;;;;;;;;;;;22.47;54.21;100281.47;5119959;27;4327;-72
2022/05/12 01:42:09;;;;;;;;;;;;;;;22.47;54.43;100281.47;5118883;27;5314;-66
2022/05/12 01:44:35;;;;;;;;;;;;;;;22.46;54.15;100294.44;5119481;27;4361;-72
2022/05/12 01:47:02;;;;;;;;;;;;;;;22.47;54.12;100309.59;5119817;27;4272;-72
2022/05/12 01:49:28;;;;;;;;;;;;;;;22.47;54.15;100333.41;5119587;27;4161;-72
2022/05/12 01:51:55;;;;;;;;;;;;;;;22.46;54.32;100320.38;5120530;27;4228;-72
2022/05/12 01:54:22;;;;;;;;;;;;;;;22.45;54.21;100298.72;5102947;27;4179;-71
2022/05/12 01:56:48;;;;;;;;;;;;;;;22.45;54.09;100295.84;5120717;27;4005;-72
2022/05/12 01:59:15;;;;;;;;;;;;;;;22.46;54.13;100308.13;5118299;27;4159;-71
2022/05/12 02:01:41;;;;;;;;;;;;;;;22.45;53.98;100321.81;5120499;27;5291;-72
2022/05/12 02:04:07;;;;;;;;;;;;;;;22.45;54.06;100336.25;5119220;27;4246;-72
2022/05/12 02:06:34;;;;;;;;;;;;;;;22.45;53.79;100359.31;5117329;27;4270;-72
2022/05/12 02:09:00;;;;;;;;;;;;;;;22.44;54.18;100357.81;5117092;27;4061;-72
2022/05/12 02:11:26;;;;;;;;;;;;;;;22.45;54.13;100355.69;5116740;27;4165;-72
2022/05/12 02:13:53;;;;;;;;;;;;;;;22.45;54.09;100370.09;5115895;27;4150;-72
2022/05/12 02:16:19;;;;;;;;;;;;;;;22.44;53.74;100357.81;5116472;27;5450;-72
2022/05/12 02:18:46;;;;;;;;;;;;;;;22.44;54.07;100380.91;5116504;27;3979;-72
2022/05/12 02:21:12;;;;;;;;;;;;;;;22.44;53.93;100375.13;5114043;27;4205;-72
2022/05/12 02:23:38;;;;;;;;;;;;;;;22.44;53.70;100397.50;5114307;27;4224;-72
2022/05/12 02:26:05;;;;;;;;;;;;;;;22.43;53.72;100384.50;5117588;27;4264;-71
2022/05/12 02:28:31;;;;;;;;;;;;;;;22.43;53.88;100391.00;5117136;27;5292;-72
2022/05/12 02:30:57;;;;;;;;;;;;;;;22.43;53.89;100413.34;5114970;27;4173;-72
2022/05/12 02:33:25;;;;;;;;;;;;;;;22.42;54.01;100417.63;5115321;27;4200;-72
2022/05/12 02:35:51;;;;;;;;;;;;;;;22.42;53.80;100389.50;5118190;27;4212;-72
2022/05/12 02:38:18;;;;;;;;;;;;;;;22.42;53.76;100406.81;5117964;27;4254;-72
2022/05/12 02:40:44;;;;;;;;;;;;;;;22.30;54.25;100406.44;5113917;27;4143;-72
2022/05/12 02:43:26;;;;;;;;;;;;;;;22.30;54.10;100412.22;5119112;27;4183;-72
2022/05/12 02:45:53;;;;;;;;;;;;;;;22.30;54.18;100407.16;5115528;27;4416;-72
2022/05/12 02:48:19;;;;;;;;;;;;;;;22.29;54.15;100388.41;5116294;27;4154;-72
2022/05/12 02:50:46;;;;;;;;;;;;;;;22.35;54.04;100387.84;5117254;27;4120;-72
2022/05/12 02:53:12;;;;;;;;;;;;;;;22.36;54.04;100387.19;5115009;27;4048;-72
2022/05/12 02:55:38;;;;;;;;;;;;;;;22.37;53.96;100376.38;5117255;27;5290;-72
2022/05/12 02:58:05;;;;;;;;;;;;;;;22.33;54.09;100384.91;5115862;27;4024;-72
2022/05/12 03:00:33;;;;;;;;;;;;;;;22.36;54.13;100401.59;5113484;27;3988;-72
2022/05/12 03:02:59;;;;;;;;;;;;;;;22.35;54.06;100408.03;5114919;27;4053;-72
2022/05/12 03:05:26;;;;;;;;;;;;;;;22.35;54.23;100425.34;5117143;27;5541;-72
2022/05/12 03:07:52;;;;;;;;;;;;;;;22.36;54.21;100421.06;5116596;27;4253;-72
2022/05/12 03:10:19;;;;;;;;;;;;;;;22.36;54.24;100397.97;5119291;27;4215;-72
2022/05/12 03:12:45;;;;;;;;;;;;;;;22.37;54.10;100399.44;5117984;27;4563;-71
2022/05/12 03:15:12;;;;;;;;;;;;;;;22.36;54.02;100409.53;5117529;27;5227;-72
2022/05/12 03:17:39;;;;;;;;;;;;;;;22.35;54.19;100426.06;5117431;27;4186;-72
2022/05/12 03:20:06;;;;;;;;;;;;;;;22.37;54.26;100425.41;5118652;27;4227;-72
2022/05/12 03:22:33;;;;;;;;;;;;;;;22.37;54.24;100439.84;5118967;27;5395;-72
2022/05/12 03:24:59;;;;;;;;;;;;;;;22.36;54.22;100438.38;5115863;27;5251;-72
2022/05/12 03:27:25;;;;;;;;;;;;;;;22.36;54.36;100432.59;5116109;27;4525;-71
2022/05/12 03:29:52;;;;;;;;;;;;;;;22.36;54.18;100444.13;5117113;27;6393;-71
2022/05/12 03:32:18;;;;;;;;;;;;;;;22.35;53.98;100436.88;5117712;27;4178;-71
2022/05/12 03:34:44;;;;;;;;;;;;;;;22.34;54.15;100435.41;5117712;27;4175;-71
2022/05/12 03:37:12;;;;;;;;;;;;;;;22.34;54.17;100438.31;5118060;27;4200;-71
2022/05/12 03:39:42;;;;;;;;;;;;;;;22.31;54.11;100430.97;5116825;27;5469;-71
2022/05/12 03:42:10;;;;;;;;;;;;;;;22.28;54.06;100433.06;5118009;27;5338;-71
2022/05/12 03:44:50;;;;;;;;;;;;;;;22.29;54.29;100433.81;5116941;27;4334;-71
2022/05/12 03:47:19;;;;;;;;;;;;;;;22.30;53.96;100435.28;5117711;28;4121;-71
2022/05/12 03:49:46;;;;;;;;;;;;;;;22.29;54.19;100439.59;5115862;27;4295;-71
2022/05/12 03:52:13;;;;;;;;;;;;;;;22.28;54.00;100438.09;5116600;27;5442;-71
2022/05/12 03:54:40;;;;;;;;;;;;;;;22.26;54.23;100441.66;5117724;28;3966;-72
2022/05/12 03:57:06;;;;;;;;;;;;;;;22.27;54.21;100459.72;5117490;28;4252;-72
2022/05/12 03:59:33;;;;;;;;;;;;;;;22.26;54.04;100466.88;5114259;28;4328;-72
2022/05/12 04:01:59;;;;;;;;;;;;;;;22.26;54.00;100472.66;5118417;28;4191;-71
2022/05/12 04:04:26;;;;;;;;;;;;;;;22.26;54.11;100478.41;5116336;28;6278;-72
2022/05/12 04:06:52;;;;;;;;;;;;;;;22.26;53.89;100487.06;5118905;27;4323;-72
2022/05/12 04:09:19;;;;;;;;;;;;;;;22.26;54.13;100492.84;5121066;27;4178;-72
2022/05/12 04:11:45;;;;;;;;;;;;;;;22.26;54.19;100492.84;5117233;27;5322;-72
2022/05/12 04:14:11;;;;;;;;;;;;;;;22.25;53.82;100494.25;5120771;27;4316;-71
2022/05/12 04:16:38;;;;;;;;;;;;;;;22.25;53.83;100497.88;5121534;27;4241;-72
2022/05/12 04:19:05;;;;;;;;;;;;;;;22.24;53.97;100496.41;5119543;27;4200;-72
2022/05/12 04:21:34;;;;;;;;;;;;;;;22.25;53.93;100500.03;5118708;27;4211;-73
2022/05/12 04:24:01;;;;;;;;;;;;;;;22.25;54.00;100514.44;5122332;27;6453;-71
2022/05/12 04:26:27;;;;;;;;;;;;;;;22.25;53.76;100508.69;5121124;27;5266;-71
2022/05/12 04:28:54;;;;;;;;;;;;;;;22.25;53.74;100511.56;5121889;27;4313;-72
2022/05/12 04:31:20;;;;;;;;;;;;;;;22.24;53.53;100524.50;5119666;27;4270;-71
2022/05/12 04:36:32;;;;;;;;;;;;;;;22.23;53.37;100525.91;5110127;27;4157;-72
2022/05/12 04:38:59;;;;;;;;;;;;;;;22.23;53.49;100538.19;5112998;27;4628;-72
2022/05/12 04:41:25;;;;;;;;;;;;;;;22.23;53.41;100540.34;5119495;27;4275;-72
2022/05/12 04:43:52;;;;;;;;;;;;;;;22.23;53.63;100546.84;5120827;27;4162;-72
2022/05/12 04:46:18;;;;;;;;;;;;;;;22.22;53.50;100535.97;5118913;27;5747;-71
2022/05/12 04:48:45;;;;;;;;;;;;;;;22.22;53.30;100550.38;5119914;27;4181;-72
2022/05/12 04:51:11;;;;;;;;;;;;;;;22.21;53.50;100560.41;5114032;27;4082;-71
2022/05/12 04:53:38;;;;;;;;;;;;;;;22.21;53.26;100560.41;5110100;27;4472;-72
2022/05/12 04:56:04;;;;;;;;;;;;;;;22.21;53.49;100564.06;5107175;27;4057;-71
2022/05/12 04:58:30;;;;;;;;;;;;;;;22.21;53.26;100574.84;5114281;27;4236;-66
2022/05/12 05:00:57;;;;;;;;;;;;;;;22.19;53.49;100581.25;5116425;27;4592;-65
2022/05/12 05:03:23;;;;;;;;;;;;;;;22.20;53.47;100579.16;5107374;27;4237;-66
2022/05/12 05:05:50;;;;;;;;;;;;;;;22.19;53.30;100598.56;5086735;27;4118;-64
2022/05/12 05:08:17;;;;;;;;;;;;;;;22.17;53.55;100615.81;5113091;27;4174;-63
2022/05/12 05:10:43;;;;;;;;;;;;;;;22.17;53.30;100612.91;5115254;27;4303;-63
2022/05/12 05:13:10;;;;;;;;;;;;;;;22.15;53.41;100612.84;5117693;27;4972;-63
2022/05/12 05:15:36;;;;;;;;;;;;;;;22.15;53.61;100616.50;5112625;27;4368;-63
2022/05/12 05:18:08;;;;;;;;;;;;;;;22.15;53.72;100638.81;5111747;27;4257;-64
2022/05/12 05:20:35;;;;;;;;;;;;;;;22.14;53.76;100637.34;5101377;27;5404;-66
2022/05/12 05:23:01;;;;;;;;;;;;;;;22.16;53.47;100646.78;5113280;27;4242;-63
2022/05/12 05:25:27;;;;;;;;;;;;;;;22.15;52.92;100651.09;5111267;27;4257;-64
2022/05/12 05:27:55;;;;;;;;;;;;;;;22.12;53.27;100652.41;5111829;27;5704;-63
2022/05/12 05:30:22;;;;;;;;;;;;;;;22.14;52.95;100666.16;5116697;27;5071;-63
2022/05/12 05:32:48;;;;;;;;;;;;;;;22.13;52.98;100674.09;5117632;27;3982;-63
2022/05/12 05:35:14;;;;;;;;;;;;;;;22.13;52.63;100694.28;5109502;27;4533;-64
2022/05/12 05:37:41;;;;;;;;;;;;;;;22.06;51.54;100695.47;5110636;27;4007;-63
2022/05/12 05:40:09;;;;;;;;;;;;;;;22.08;51.31;100698.44;5117499;27;5482;-63
2022/05/12 05:42:35;;;;;;;;;;;;;;;22.09;51.09;100708.53;5112374;27;4556;-63
2022/05/12 05:45:08;;;;;;;;;;;;;;;22.10;51.03;100712.16;5113780;27;4238;-64
2022/05/12 05:47:35;;;;;;;;;;;;;;;22.10;51.26;100727.31;5116252;27;4161;-63
2022/05/12 05:50:02;;;;;;;;;;;;;;;22.02;49.51;100770.28;5117500;27;4192;-66
2022/05/12 05:55:27;;;;;;;;;;;;;;;21.89;46.91;100751.75;5090269;27;4254;-64
2022/05/12 05:57:53;;;;;;;;;;;;;;;22.09;48.75;100751.78;5103551;27;4209;-66
2022/05/12 06:00:25;;;;;;;;;;;;;;;22.34;48.60;100749.84;5110068;27;4120;-66
2022/05/12 06:02:52;;;;;;;;;;;;;;;22.45;48.27;100771.91;5112055;27;5191;-67
2022/05/12 06:05:19;;;;;;;;;;;;;;;22.51;48.15;100769.22;5114907;27;3970;-66
2022/05/12 06:07:45;;;;;;;;;;;;;;;22.62;48.25;100772.47;5112267;27;3989;-67
2022/05/12 06:10:12;;;;;;;;;;;;;;;22.69;48.05;100788.59;5115485;27;4084;-68
2022/05/12 06:12:38;;;;;;;;;;;;;;;22.71;48.13;100789.41;5082914;27;4100;-67
2022/05/12 06:15:05;;;;;;;;;;;;;;;22.77;48.33;100803.34;5107586;27;4143;-70
2022/05/12 06:17:31;;;;;;;;;;;;;;;22.84;48.01;100813.69;5092908;27;4060;-67
2022/05/12 06:19:58;;;;;;;;;;;;;;;22.84;47.96;100819.47;5112483;27;4072;-68
2022/05/12 06:22:24;;;;;;;;;;;;;;;22.85;47.61;100818.03;5108248;27;4010;-67
2022/05/12 06:24:51;;;;;;;;;;;;;;;22.88;47.72;100836.16;5116271;27;3963;-66
2022/05/12 06:27:19;;;;;;;;;;;;;;;22.90;47.75;100845.63;5100745;27;4221;-66
2022/05/12 06:29:46;;;;;;;;;;;;;;;22.91;47.72;100849.28;5108374;27;4115;-66
2022/05/12 06:32:12;;;;;;;;;;;;;;;22.86;47.73;100862.06;5114671;27;4035;-66
2022/05/12 06:34:42;;;;;;;;;;;;;;;22.90;47.89;100870.91;5092950;27;5029;-67
2022/05/12 06:37:08;;;;;;;;;;;;;;;22.87;47.83;100886.66;5109930;27;4181;-68
2022/05/12 06:39:35;;;;;;;;;;;;;;;22.87;47.64;100878.00;5115594;27;4064;-70
2022/05/12 06:42:01;;;;;;;;;;;;;;;22.89;47.85;100881.72;5114826;27;5164;-72
2022/05/12 06:44:42;;;;;;;;;;;;;;;22.93;47.89;100893.41;5095548;27;4094;-70
2022/05/12 06:47:33;;;;;;;;;;;;;;;22.93;47.76;100895.53;5098437;27;4038;-64
2022/05/12 06:50:02;;;;;;;;;;;;;;;22.93;47.67;100904.97;5110685;27;5071;-67
2022/05/12 06:52:29;;;;;;;;;;;;;;;22.94;48.00;100915.09;5104862;27;4212;-66
2022/05/12 06:54:55;;;;;;;;;;;;;;;22.96;47.93;100909.41;5103502;27;4045;-67
2022/05/12 06:57:23;;;;;;;;;;;;;;;23.02;47.73;100919.72;5097232;27;5591;-68
2022/05/12 06:59:49;;;;;;;;;;;;;;;23.04;47.79;100925.56;5103772;27;4216;-69
2022/05/12 07:02:15;;;;;;;;;;;;;;;23.08;47.78;100934.38;5100565;27;4189;-69
2022/05/12 07:04:45;;;;;;;;;;;;;;;23.10;47.55;100948.91;5103997;27;4236;-69
2022/05/12 07:07:12;;;;;;;;;;;;;;;23.11;47.21;100950.38;5102208;27;4348;-67
2022/05/12 07:09:38;;;;;;;;;;;;;;;23.15;47.39;100962.06;5106975;27;4108;-65
2022/05/12 07:12:05;;;;;;;;;;;;;;;23.16;47.42;100957.78;5100682;27;5216;-64
2022/05/12 07:14:31;;;;;;;;;;;;;;;23.08;46.82;100969.78;5109067;27;5300;-70
2022/05/12 07:16:58;;;;;;;;;;;;;;;22.78;47.11;100972.25;5109183;27;4554;-65
2022/05/12 07:19:25;;;;;;;;;;;;;;;22.69;47.40;100990.66;5105750;27;4201;-72
2022/05/12 07:27:31;;;;;;;;;;;;;;;22.61;47.83;101010.53;5107015;27;4222;-68
2022/05/12 07:29:58;;;;;;;;;;;;;;;22.43;48.67;101017.06;5113329;27;4200;-63
2022/05/12 07:32:25;;;;;;;;;;;;;;;22.31;47.84;101020.19;5111550;27;5852;-60
2022/05/12 07:38:46;;;;;;;;;;;;;;;22.16;45.51;101036.13;5104914;27;4358;-64
2022/05/12 07:41:13;;;;;;;;;;;;;;;22.15;46.06;101043.31;5112131;27;4400;-65
2022/05/12 07:43:39;;;;;;;;;;;;;;;22.22;45.97;101066.66;5112395;27;4092;-64
2022/05/12 07:46:06;;;;;;;;;;;;;;;22.19;46.19;101060.03;5114754;27;4231;-64
2022/05/12 07:48:33;;;;;;;;;;;;;;;22.18;46.66;101058.56;5107383;27;4415;-65
2022/05/12 07:50:59;;;;;;;;;;;;;;;22.17;46.52;101054.94;5110235;27;4451;-64
2022/05/12 07:53:25;;;;;;;;;;;;;;;22.18;46.86;101067.97;5105974;27;5542;-65
2022/05/12 07:55:52;;;;;;;;;;;;;;;22.19;46.78;101065.81;5100072;28;4136;-64
2022/05/12 07:58:18;;;;;;;;;;;;;;;22.28;46.75;101072.69;5098449;28;4501;-65
2022/05/12 08:00:45;;;;;;;;;;;;;;;22.22;47.00;101070.31;5100243;28;5116;-64
2022/05/12 08:03:11;;;;;;;;;;;;;;;22.21;46.81;101073.81;5099286;28;4473;-65
2022/05/12 08:05:38;;;;;;;;;;;;;;;22.21;47.43;101082.47;5099095;28;4605;-64
2022/05/12 08:08:04;;;;;;;;;;;;;;;22.21;47.27;101089.00;5098831;27;4591;-64
2022/05/12 08:10:31;;;;;;;;;;;;;;;22.21;47.28;101096.88;5111331;28;3986;-64
2022/05/12 08:12:57;;;;;;;;;;;;;;;22.26;47.37;101092.78;5114730;28;5258;-64
2022/05/12 08:15:25;;;;;;;;;;;;;;;22.25;47.34;101102.88;5112954;28;4406;-65
2022/05/12 08:17:54;;;;;;;;;;;;;;;22.28;47.40;101110.19;5110370;28;5687;-65
2022/05/12 08:20:21;;;;;;;;;;;;;;;22.27;47.34;101128.91;5112542;28;4505;-65
2022/05/12 08:22:47;;;;;;;;;;;;;;;22.23;47.75;101122.97;5111648;28;6117;-65
2022/05/12 08:25:14;;;;;;;;;;;;;;;22.23;47.62;101134.50;5111213;28;5406;-65
2022/05/12 08:27:40;;;;;;;;;;;;;;;22.23;47.81;101141.00;5111551;28;4141;-65
2022/05/12 08:30:07;;;;;;;;;;;;;;;22.23;48.03;101140.28;5112758;28;4606;-64
2022/05/12 08:32:34;;;;;;;;;;;;;;;22.21;47.85;101145.94;5112360;28;4048;-64
2022/05/12 08:35:01;;;;;;;;;;;;;;;22.31;47.81;101147.13;5110641;28;4363;-65
2022/05/12 08:37:27;;;;;;;;;;;;;;;22.25;48.07;101157.69;5109042;28;5243;-64
2022/05/12 08:39:54;;;;;;;;;;;;;;;22.21;48.26;101157.47;5108015;28;4334;-64
2022/05/12 08:42:23;;;;;;;;;;;;;;;22.44;47.70;101142.63;5092876;28;4626;-65
2022/05/12 08:44:49;;;;;;;;;;;;;;;22.28;47.93;101171.50;5108308;27;4007;-61
2022/05/12 08:47:16;;;;;;;;;;;;;;;22.26;46.71;101164.91;5109387;28;5223;-64
2022/05/12 08:49:45;;;;;;;;;;;;;;;22.22;47.65;101179.16;5087838;27;4366;-63
2022/05/12 08:52:16;;;;;;;;;;;;;;;22.26;47.06;101180.06;5112512;27;4275;-63
2022/05/12 08:54:43;;;;;;;;;;;;;;;22.31;47.17;101181.75;5088625;27;4874;-64
2022/05/12 08:57:14;;;;;;;;;;;;;;;22.24;47.29;101180.00;5115670;27;4294;-61
2022/05/12 08:59:41;;;;;;;;;;;;;;;22.21;47.55;101183.44;5100621;27;4149;-61
2022/05/12 09:02:24;;;;;;;;;;;;;;;22.14;46.29;101191.81;5117355;27;4305;-61
2022/05/12 09:04:57;;;;;;;;;;;;;;;22.16;46.29;101194.03;5101379;27;4227;-60
2022/05/12 09:07:27;;;;;;;;;;;;;;;22.17;45.72;101192.63;5113765;27;4362;-61
2022/05/12 09:10:03;;;;;;;;;;;;;;;22.26;45.11;101196.66;5102817;27;4209;-62
2022/05/12 09:12:32;;;;;;;;;;;;;;;22.22;45.37;101190.69;5113422;27;4185;-62
2022/05/12 09:15:01;;;;;;;;;;;;;;;22.18;44.17;101194.88;5117392;27;4117;-59
2022/05/12 09:17:29;;;;;;;;;;;;;;;22.16;44.41;101196.94;5114458;27;4432;-62
2022/05/12 09:19:57;;;;;;;;;;;;;;;22.17;44.90;101207.81;5111376;27;4650;-61
2022/05/12 09:22:24;;;;;;;;;;;;;;;22.20;44.58;101213.69;5086747;27;4526;-61
2022/05/12 09:24:50;;;;;;;;;;;;;;;22.22;44.48;101210.88;5106325;27;4212;-62
2022/05/12 09:27:17;;;;;;;;;;;;;;;22.22;44.56;101219.53;5100017;27;4157;-64
2022/05/12 09:29:47;;;;;;;;;;;;;;;22.24;43.58;101223.28;5111838;27;4161;-59
2022/05/12 09:32:13;;;;;;;;;;;;;;;22.57;43.20;101225.44;5112823;27;4245;-59
2022/05/12 09:34:41;;;;;;;;;;;;;;;22.85;43.08;101213.59;5117058;27;4086;-60
2022/05/12 09:37:21;;;;;;;;;;;;;;;23.16;43.34;101229.34;5113930;27;4170;-59
2022/05/12 09:39:51;;;;;;;;;;;;;;;23.60;43.33;101235.41;5117412;27;4176;-60
2022/05/12 09:42:27;;;;;;;;;;;;;;;23.92;42.96;101229.41;5118115;27;4492;-61
2022/05/12 09:44:57;;;;;;;;;;;;;;;23.97;42.82;101236.81;5117324;27;4274;-61
2022/05/12 09:47:24;;;;;;;;;;;;;;;24.10;43.27;101227.19;5112225;27;4055;-62
2022/05/12 09:49:50;;;;;;;;;;;;;;;24.16;43.08;101244.75;5118448;27;4139;-63
2022/05/12 09:52:31;;;;;;;;;;;;;;;24.18;43.22;101244.84;5115014;27;5262;-60
2022/05/12 09:55:14;;;;;;;;;;;;;;;24.02;43.49;101250.03;5118182;27;4174;-60
2022/05/12 09:57:48;;;;;;;;;;;;;;;23.71;43.66;101240.19;5112652;27;4114;-59
2022/05/12 10:00:24;;;;;;;;;;;;;;;23.63;43.62;101234.06;5117050;27;4377;-58
2022/05/12 10:08:26;;;;;;;;;;;;;;;23.51;42.89;101233.59;5100222;27;4069;-60
2022/05/12 10:10:53;;;;;;;;;;;;;;;23.57;42.78;101231.69;5117612;27;4407;-60
2022/05/12 10:13:24;;;;;;;;;;;;;;;23.58;43.02;101236.06;5118105;27;4176;-59
2022/05/12 10:15:51;;;;;;;;;;;;;;;23.59;42.12;101237.56;5106282;27;4119;-59
2022/05/12 10:18:24;;;;;;;;;;;;;;;23.48;42.34;101240.69;5113460;27;4268;-62
2022/05/12 10:20:52;;;;;;;;;;;;;;;23.47;43.12;101236.31;5116471;27;5084;-58
2022/05/12 10:23:38;;;;;;;;;;;;;;;23.44;42.60;101246.34;5095938;27;5552;-61
2022/05/12 10:26:11;;;;;;;;;;;;;;;23.45;42.61;101247.81;5111186;27;4250;-60
2022/05/12 10:28:45;;;;;;;;;;;;;;;23.42;42.47;101244.84;5098530;27;4810;-60
2022/05/12 10:31:18;;;;;;;;;;;;;;;23.45;42.19;101236.25;5112162;27;4075;-61
2022/05/12 10:33:49;;;;;;;;;;;;;;;23.54;42.04;101238.06;5096707;27;4194;-60
2022/05/12 10:36:23;;;;;;;;;;;;;;;23.42;41.54;101244.09;5098866;27;4184;-61
2022/05/12 10:38:55;;;;;;;;;;;;;;;23.45;41.91;101244.91;5116003;27;4006;-65
2022/05/12 10:41:22;;;;;;;;;;;;;;;23.66;42.03;101249.34;5118897;27;4070;-65
2022/05/12 10:43:53;;;;;;;;;;;;;;;23.61;42.01;101242.66;5101220;27;4239;-65
2022/05/12 10:46:38;;;;;;;;;;;;;;;23.70;42.47;101247.34;5110364;27;4189;-64
2022/05/12 10:49:27;;;;;;;;;;;;;;;23.59;42.40;101246.22;5110880;27;4253;-70
2022/05/12 10:52:13;;;;;;;;;;;;;;;23.62;41.89;101249.94;5094551;27;4253;-73
2022/05/12 10:54:58;;;;;;;;;;;;;;;23.60;41.88;101246.97;5103483;27;4350;-67
2022/05/12 10:57:44;;;;;;;;;;;;;;;23.59;41.30;101251.25;5106665;27;4669;-68
2022/05/12 11:00:26;;;;;;;;;;;;;;;23.52;41.00;101247.38;5088835;27;4152;-68
2022/05/12 11:02:56;;;;;;;;;;;;;;;23.52;40.79;101250.25;5073272;27;4324;-67
2022/05/12 11:05:31;;;;;;;;;;;;;;;23.56;40.35;101249.69;5090769;27;4029;-67
2022/05/12 11:08:09;;;;;;;;;;;;;;;23.58;40.43;101256.28;5092567;27;4233;-68
2022/05/12 11:10:40;;;;;;;;;;;;;;;23.57;40.27;101249.03;5090061;27;4285;-66
2022/05/12 11:13:26;;;;;;;;;;;;;;;23.51;39.65;101250.94;5109035;27;5125;-69
2022/05/12 11:15:54;;;;;;;;;;;;;;;23.53;39.65;101251.03;5110206;27;4166;-71
2022/05/12 11:18:23;;;;;;;;;;;;;;;23.24;39.13;101246.25;5092572;27;5462;-62
2022/05/12 11:21:01;;;;;;;;;;;;;;;22.73;38.53;101247.75;5089090;27;4155;-69
2022/05/12 11:23:54;;;;;;;;;;;;;;;22.70;38.39;101246.91;5111467;27;4573;-69
2022/05/12 11:26:33;;;;;;;;;;;;;;;22.78;39.22;101252.28;5084004;27;4242;-72
2022/05/12 11:31:53;;;;;;;;;;;;;;;22.99;38.64;101251.75;5113640;27;4233;-74
2022/05/12 11:34:21;;;;;;;;;;;;;;;23.08;38.64;101246.31;5094950;27;4562;-74
2022/05/12 11:36:48;;;;;;;;;;;;;;;23.11;38.76;101250.78;5114514;27;4185;-69
2022/05/12 11:39:30;;;;;;;;;;;;;;;23.09;39.03;101242.78;5100765;28;4330;-72
2022/05/12 11:42:06;;;;;;;;;;;;;;;23.10;39.04;101249.31;5117765;27;4142;-74
2022/05/12 11:44:39;;;;;;;;;;;;;;;23.12;38.95;101253.00;5098073;27;4462;-73
2022/05/12 11:47:11;;;;;;;;;;;;;;;23.15;38.98;101248.06;5097715;27;4128;-70
2022/05/12 11:49:43;;;;;;;;;;;;;;;23.21;38.85;101249.06;5114995;27;4375;-73
2022/05/12 11:52:25;;;;;;;;;;;;;;;23.18;38.88;101249.63;5119448;27;4538;-68
2022/05/12 11:54:52;;;;;;;;;;;;;;;23.19;38.45;101251.13;5115605;27;4062;-67
2022/05/12 11:57:23;;;;;;;;;;;;;;;23.18;38.67;101250.38;5097722;28;4414;-70
2022/05/12 11:59:56;;;;;;;;;;;;;;;23.20;38.46;101264.91;5095383;28;5074;-67
2022/05/12 12:02:29;;;;;;;;;;;;;;;23.21;38.45;101266.38;5086845;27;4163;-61
2022/05/12 12:04:59;;;;;;;;;;;;;;;23.25;38.50;101271.59;5103164;27;4220;-69
2022/05/12 12:07:31;;;;;;;;;;;;;;;23.17;38.35;101271.25;5097087;27;4165;-65
2022/05/12 12:10:05;;;;;;;;;;;;;;;23.05;38.22;101265.00;5101645;27;4205;-71
2022/05/12 12:12:40;;;;;;;;;;;;;;;22.95;37.97;101263.13;5089622;27;4078;-70
2022/05/12 12:15:10;;;;;;;;;;;;;;;22.87;38.15;101285.88;5106543;27;4205;-72
2022/05/12 12:17:38;;;;;;;;;;;;;;;22.82;38.37;101278.44;5105236;27;4147;-72
2022/05/12 12:20:07;;;;;;;;;;;;;;;22.78;38.62;101267.47;5111877;27;4138;-73
2022/05/12 12:22:40;;;;;;;;;;;;;;;22.76;38.90;101275.28;5096021;27;4110;-69
2022/05/12 12:25:09;;;;;;;;;;;;;;;22.75;38.94;101277.44;5115371;27;4260;-66
2022/05/12 12:27:40;;;;;;;;;;;;;;;22.74;39.13;101266.53;5115197;27;4192;-72
2022/05/12 12:30:25;;;;;;;;;;;;;;;22.79;40.19;101262.41;5106430;27;4523;-68
2022/05/12 12:33:08;;;;;;;;;;;;;;;22.93;40.41;101247.84;5115551;27;4156;-67
2022/05/12 12:35:48;;;;;;;;;;;;;;;22.97;39.87;101266.06;5102147;27;4166;-65
2022/05/12 12:38:33;;;;;;;;;;;;;;;23.00;40.21;101256.16;5115549;27;4251;-67
2022/05/12 12:41:00;;;;;;;;;;;;;;;23.05;40.44;101244.75;5118904;27;4213;-67
2022/05/12 12:43:27;;;;;;;;;;;;;;;23.06;41.16;101260.69;5112154;27;4197;-70
2022/05/12 12:45:54;;;;;;;;;;;;;;;23.21;40.85;101254.84;5106972;27;4083;-68
2022/05/12 12:48:41;;;;;;;;;;;;;;;23.16;40.57;101258.22;5114679;27;4342;-70
2022/05/12 12:51:08;;;;;;;;;;;;;;;23.15;40.81;101239.41;5118297;27;5263;-73
2022/05/12 12:56:32;;;;;;;;;;;;;;;23.19;41.29;101245.34;5115948;27;4295;-71
2022/05/12 12:58:59;;;;;;;;;;;;;;;23.25;41.67;101250.63;5124330;27;5109;-69
2022/05/12 13:01:34;;;;;;;;;;;;;;;23.23;41.59;101251.28;5120062;27;4754;-71
2022/05/12 13:04:01;;;;;;;;;;;;;;;23.26;41.59;101241.28;5105291;27;5225;-70
2022/05/12 13:06:30;;;;;;;;;;;;;;;23.28;41.74;101243.53;5124838;27;4005;-71
2022/05/12 13:08:57;;;;;;;;;;;;;;;23.32;41.84;101235.78;5123009;27;4191;-70
2022/05/12 13:11:24;;;;;;;;;;;;;;;23.32;41.77;101235.78;5123553;27;5285;-73
2022/05/12 13:13:51;;;;;;;;;;;;;;;23.30;42.07;101232.78;5124555;27;4214;-73
2022/05/12 13:16:18;;;;;;;;;;;;;;;23.27;42.33;101227.59;5119359;27;4744;-73
2022/05/12 13:18:46;;;;;;;;;;;;;;;23.35;42.43;101222.13;5115221;27;4303;-68
2022/05/12 13:21:23;;;;;;;;;;;;;;;23.44;42.04;101252.84;5120757;27;4203;-73
2022/05/12 13:24:00;;;;;;;;;;;;;;;23.38;41.94;101244.66;5116556;27;4543;-72